Peterson AFB, Colorado
Current Conditions -  °F | °C
As of 7:54 AM on Thursday 23 Oct 2014 (Local Time) from KCOS Reporting Station
Few Clouds Few Clouds  
Wind Chill: 45°   Ceiling: Unl
Heat Index: 45°   Visibility: 10mi
Dew Point: 34°   Wind: 3mph
Humidity: 65%   Direction: 10°N
Pressure: 30.23"   Gusts: NA
Location:  38.8076°N, 104.704°W
Report Text: KCOS 231354Z 01003KT 10SM FEW250 07/01 A3023 RMK AO2 SLP205 T00720011
Loading
Personal Weather Stations






























Interactive Weather Map
Tropical Storm Tracking
New forecast layout! Learn more

10-Day Weather Forecast

Advertisements
Track Severe Weather on mobile